createdAt,value
2023-02-14T00:00:43.441Z,69.60
2023-02-14T00:03:12.133Z,69.35
2023-02-14T00:05:38.810Z,69.40
2023-02-14T00:08:05.401Z,69.47
2023-02-14T00:10:32.064Z,69.57
2023-02-14T00:13:01.662Z,69.82
2023-02-14T00:15:28.545Z,69.69
2023-02-14T00:17:59.467Z,69.45
2023-02-14T00:20:27.713Z,69.66
2023-02-14T00:22:54.796Z,69.89
2023-02-14T00:25:21.771Z,70.08
2023-02-14T00:27:48.395Z,69.65
2023-02-14T00:30:15.129Z,69.91
2023-02-14T00:32:42.396Z,69.80
2023-02-14T00:35:10.093Z,70.03
2023-02-14T00:37:36.737Z,69.85
2023-02-14T00:40:05.279Z,70.40
2023-02-14T00:42:32.160Z,70.11
2023-02-14T00:44:58.774Z,70.00
2023-02-14T00:47:25.642Z,70.00
2023-02-14T00:49:52.213Z,69.92
2023-02-14T00:52:19.075Z,70.08
2023-02-14T00:54:45.641Z,69.96
2023-02-14T00:57:13.850Z,69.42
2023-02-14T00:59:42.908Z,69.68
2023-02-14T01:02:09.744Z,69.84
2023-02-14T01:04:36.594Z,69.82
2023-02-14T01:07:03.550Z,69.87
2023-02-14T01:09:30.128Z,69.90
2023-02-14T01:11:56.724Z,70.08
2023-02-14T01:14:23.325Z,70.01
2023-02-14T01:16:50.027Z,69.98
2023-02-14T01:19:17.031Z,69.58
2023-02-14T01:21:43.980Z,69.87
2023-02-14T01:24:12.660Z,70.00
2023-02-14T01:26:42.877Z,69.95
2023-02-14T01:29:09.506Z,69.65
2023-02-14T01:31:36.488Z,69.68
2023-02-14T01:34:03.689Z,69.41
2023-02-14T01:36:37.083Z,69.64
2023-02-14T01:39:11.484Z,70.05
2023-02-14T01:41:41.380Z,70.17
2023-02-14T01:44:27.988Z,70.59
2023-02-14T01:46:56.388Z,70.88
2023-02-14T01:49:31.591Z,71.65
2023-02-14T01:52:04.363Z,71.64
2023-02-14T01:54:34.019Z,71.42
2023-02-14T01:57:05.181Z,71.87
2023-02-14T01:59:36.507Z,72.02
2023-02-14T02:02:04.244Z,72.09
2023-02-14T02:04:37.763Z,72.19
2023-02-14T02:07:12.223Z,72.14
2023-02-14T02:09:49.525Z,72.13
2023-02-14T02:12:16.222Z,72.55
2023-02-14T02:14:43.798Z,72.45
2023-02-14T02:17:10.328Z,72.69
2023-02-14T02:19:52.096Z,72.63
2023-02-14T02:22:56.386Z,72.72
2023-02-14T02:25:53.920Z,72.65
2023-02-14T02:29:07.864Z,72.54
2023-02-14T02:32:27.047Z,72.73
2023-02-14T02:35:05.625Z,72.72
2023-02-14T02:37:57.292Z,72.94
2023-02-14T02:40:45.349Z,72.92
2023-02-14T02:43:35.953Z,73.35
2023-02-14T02:46:32.738Z,73.49
2023-02-14T02:48:59.242Z,73.81
2023-02-14T02:52:12.677Z,73.74
2023-02-14T02:54:44.911Z,74.20
2023-02-14T02:57:26.681Z,74.60
2023-02-14T02:59:57.512Z,74.31
2023-02-14T03:02:58.746Z,74.86
2023-02-14T03:05:28.571Z,75.34
2023-02-14T03:07:55.183Z,75.32
2023-02-14T03:10:31.927Z,76.18
2023-02-14T03:13:41.183Z,76.59
2023-02-14T03:16:40.149Z,76.87
2023-02-14T03:19:31.279Z,77.05
2023-02-14T03:22:32.509Z,77.29
2023-02-14T03:25:16.566Z,77.48
2023-02-14T03:28:07.033Z,77.19
2023-02-14T03:30:45.629Z,77.51
2023-02-14T03:33:35.282Z,77.53
2023-02-14T03:36:11.505Z,77.37
2023-02-14T03:38:57.392Z,77.53
2023-02-14T03:41:29.662Z,78.09
2023-02-14T03:44:01.613Z,78.06
2023-02-14T03:46:45.842Z,78.23
2023-02-14T03:49:18.302Z,78.70
2023-02-14T03:51:49.623Z,78.75
2023-02-14T03:54:17.805Z,78.64
2023-02-14T03:56:54.927Z,78.71
2023-02-14T03:59:25.924Z,78.78
2023-02-14T04:02:04.289Z,78.75
2023-02-14T04:04:35.947Z,78.68
2023-02-14T04:07:13.710Z,79.02
2023-02-14T04:09:40.555Z,79.29
2023-02-14T04:12:07.840Z,78.99
2023-02-14T04:14:34.544Z,79.36
2023-02-14T04:17:20.210Z,79.12
2023-02-14T04:19:46.826Z,79.41
2023-02-14T04:22:13.523Z,79.23
2023-02-14T04:24:40.172Z,79.56
2023-02-14T04:27:10.256Z,79.57
2023-02-14T04:29:39.870Z,79.56
2023-02-14T04:32:08.528Z,79.72
2023-02-14T04:34:35.820Z,79.64
2023-02-14T04:37:02.511Z,79.99
2023-02-14T04:39:29.328Z,79.57
2023-02-14T04:41:56.005Z,79.73
2023-02-14T04:44:22.884Z,79.93
2023-02-14T04:46:49.541Z,80.00
2023-02-14T04:49:16.713Z,80.15
2023-02-14T04:51:43.326Z,80.33
2023-02-14T04:54:10.412Z,80.46
2023-02-14T04:56:37.167Z,80.53
2023-02-14T04:59:04.269Z,80.61
2023-02-14T05:01:30.870Z,80.55
2023-02-14T05:03:57.665Z,80.38
2023-02-14T05:06:24.293Z,80.65
2023-02-14T05:08:50.870Z,80.38
2023-02-14T05:11:17.448Z,80.61
2023-02-14T05:13:44.222Z,80.44
2023-02-14T05:16:10.867Z,80.31
2023-02-14T05:18:37.524Z,80.41
2023-02-14T05:21:04.278Z,80.17
2023-02-14T05:23:30.999Z,80.02
2023-02-14T05:25:57.609Z,79.83
2023-02-14T05:28:24.199Z,79.91
2023-02-14T05:30:51.764Z,79.73
2023-02-14T05:33:18.680Z,79.81
2023-02-14T05:35:45.589Z,79.80
2023-02-14T05:38:13.194Z,79.83
2023-02-14T05:40:40.711Z,79.22
2023-02-14T05:43:07.705Z,78.63
2023-02-14T05:45:34.533Z,78.88
2023-02-14T05:48:01.146Z,78.77
2023-02-14T05:50:28.601Z,78.54
2023-02-14T05:52:56.011Z,78.39
2023-02-14T05:55:22.731Z,78.40
2023-02-14T05:57:49.361Z,78.35
2023-02-14T06:00:17.291Z,78.25
2023-02-14T06:02:43.938Z,78.00
2023-02-14T06:05:10.581Z,78.25
2023-02-14T06:07:37.180Z,78.37
2023-02-14T06:10:04.076Z,78.47
2023-02-14T06:12:30.608Z,78.51
2023-02-14T06:14:57.188Z,78.25
2023-02-14T06:17:23.828Z,78.54
2023-02-14T06:19:50.437Z,79.04
2023-02-14T06:22:17.012Z,79.16
2023-02-14T06:24:43.854Z,79.16
2023-02-14T06:27:10.632Z,79.12
2023-02-14T06:29:37.412Z,79.21
2023-02-14T06:32:06.873Z,79.11
2023-02-14T06:34:34.629Z,78.67
2023-02-14T06:37:01.383Z,78.93
2023-02-14T06:39:27.975Z,78.40
2023-02-14T06:41:54.658Z,78.38
2023-02-14T06:44:21.338Z,78.30
2023-02-14T06:46:48.030Z,78.33
2023-02-14T06:49:14.698Z,78.28
2023-02-14T06:51:41.442Z,78.34
2023-02-14T06:54:08.035Z,78.14
2023-02-14T06:56:34.692Z,78.05
2023-02-14T06:59:01.473Z,78.14
2023-02-14T07:01:28.076Z,78.46
2023-02-14T07:03:54.867Z,77.79
2023-02-14T07:06:21.474Z,78.43
2023-02-14T07:08:48.224Z,78.03
2023-02-14T07:11:14.864Z,78.52
2023-02-14T07:13:41.716Z,77.80
2023-02-14T07:16:08.375Z,76.61
2023-02-14T07:18:35.268Z,76.69
2023-02-14T07:21:02.355Z,76.21
2023-02-14T07:23:29.321Z,76.24
2023-02-14T07:25:56.400Z,75.65
2023-02-14T07:28:23.039Z,74.36
2023-02-14T07:30:49.865Z,73.74
2023-02-14T07:33:16.580Z,73.59
2023-02-14T07:35:43.276Z,72.95
2023-02-14T07:38:09.932Z,72.25
2023-02-14T07:40:36.516Z,72.00
2023-02-14T07:43:03.169Z,71.80
2023-02-14T07:45:29.815Z,72.11
2023-02-14T07:47:56.548Z,71.88
2023-02-14T07:50:23.849Z,71.16
2023-02-14T07:52:50.728Z,71.52
2023-02-14T07:55:17.567Z,71.71
2023-02-14T07:57:44.185Z,71.54
2023-02-14T08:00:11.292Z,71.94
2023-02-14T08:02:40.478Z,71.64
2023-02-14T08:05:07.942Z,71.53
2023-02-14T08:07:34.662Z,72.02
2023-02-14T08:10:01.362Z,72.01
2023-02-14T08:12:46.424Z,71.31
2023-02-14T08:15:31.329Z,71.63
2023-02-14T08:17:57.955Z,71.68
2023-02-14T08:20:30.048Z,71.31
2023-02-14T08:22:56.733Z,71.64
2023-02-14T08:25:23.367Z,71.44
2023-02-14T08:27:49.956Z,71.51
2023-02-14T08:30:16.786Z,71.47
2023-02-14T08:32:43.554Z,71.76
2023-02-14T08:35:10.227Z,72.09
2023-02-14T08:37:36.893Z,71.48
2023-02-14T08:40:03.854Z,71.12
2023-02-14T08:42:31.081Z,71.17
2023-02-14T08:44:57.726Z,71.26
2023-02-14T08:47:24.366Z,71.75
2023-02-14T08:49:51.007Z,71.70
2023-02-14T08:52:17.593Z,71.31
2023-02-14T08:54:44.246Z,71.16
2023-02-14T08:57:11.073Z,70.79
2023-02-14T08:59:37.755Z,70.85
2023-02-14T09:02:04.427Z,71.29
2023-02-14T09:04:31.050Z,70.88
2023-02-14T09:06:57.769Z,70.96
2023-02-14T09:09:24.434Z,70.23
2023-02-14T09:11:51.131Z,70.88
2023-02-14T09:14:20.576Z,70.51
2023-02-14T09:16:47.785Z,70.75
2023-02-14T09:19:15.104Z,70.59
2023-02-14T09:21:41.881Z,70.47
2023-02-14T09:24:08.582Z,70.45
2023-02-14T09:26:36.909Z,69.89
2023-02-14T09:29:03.656Z,69.80
2023-02-14T09:31:30.779Z,69.59
2023-02-14T09:34:15.938Z,69.87
2023-02-14T09:36:42.535Z,69.47
2023-02-14T09:39:09.200Z,69.55
2023-02-14T09:41:38.788Z,69.24
2023-02-14T09:44:13.374Z,68.63
2023-02-14T09:46:50.635Z,69.04
2023-02-14T09:49:23.714Z,68.98
2023-02-14T09:51:53.367Z,68.72
2023-02-14T09:54:26.365Z,68.93
2023-02-14T09:57:14.392Z,68.66
2023-02-14T09:59:49.960Z,68.37
2023-02-14T10:02:38.931Z,68.82
2023-02-14T10:05:17.126Z,68.89
2023-02-14T10:08:02.331Z,69.17
2023-02-14T10:10:40.118Z,69.20
2023-02-14T10:13:35.474Z,68.14
2023-02-14T10:16:27.173Z,67.25
2023-02-14T10:19:03.012Z,67.74
2023-02-14T10:22:07.038Z,68.10
2023-02-14T10:24:49.255Z,67.33
2023-02-14T10:27:31.980Z,66.51
2023-02-14T10:29:58.636Z,65.83
2023-02-14T10:32:40.270Z,65.90
2023-02-14T10:35:37.427Z,66.20
2023-02-14T10:38:10.170Z,66.40
2023-02-14T10:40:49.328Z,66.23
2023-02-14T10:43:47.112Z,65.91
2023-02-14T10:46:33.487Z,65.36
2023-02-14T10:49:12.118Z,65.30
2023-02-14T10:52:00.539Z,65.18
2023-02-14T10:54:39.396Z,64.44
2023-02-14T10:57:33.100Z,64.33
2023-02-14T11:00:37.776Z,63.41
2023-02-14T11:03:08.113Z,63.78
2023-02-14T11:05:46.634Z,64.98
2023-02-14T11:08:19.032Z,63.96
2023-02-14T11:10:46.024Z,63.83
2023-02-14T11:13:37.335Z,64.22
2023-02-14T11:16:13.130Z,63.77
2023-02-14T11:18:41.221Z,64.45
2023-02-14T11:21:10.819Z,63.65
2023-02-14T11:23:46.684Z,64.24
2023-02-14T11:26:26.625Z,64.02
2023-02-14T11:28:59.406Z,64.12
2023-02-14T11:31:35.186Z,64.11
2023-02-14T11:34:05.402Z,64.64
2023-02-14T11:36:40.010Z,64.35
2023-02-14T11:39:22.224Z,64.92
2023-02-14T11:41:57.283Z,64.30
2023-02-14T11:44:26.957Z,63.96
2023-02-14T11:46:56.146Z,63.11
2023-02-14T11:49:35.153Z,63.48
2023-02-14T11:52:10.799Z,62.15
2023-02-14T11:54:40.778Z,63.43
2023-02-14T11:57:33.529Z,62.03
2023-02-14T12:00:04.648Z,62.33
2023-02-14T12:02:42.116Z,63.11
2023-02-14T12:05:23.417Z,62.72
2023-02-14T12:07:54.249Z,62.38
2023-02-14T12:10:25.205Z,61.99
2023-02-14T12:13:21.200Z,62.33
2023-02-14T12:15:47.836Z,63.09
2023-02-14T12:18:23.201Z,62.08
2023-02-14T12:21:09.425Z,61.40
2023-02-14T12:23:43.526Z,61.70
2023-02-14T12:26:22.060Z,61.76
2023-02-14T12:28:55.216Z,61.40
2023-02-14T12:31:21.942Z,60.89
2023-02-14T12:33:50.526Z,61.09
2023-02-14T12:36:26.128Z,61.13
2023-02-14T12:39:08.586Z,61.13
2023-02-14T12:42:21.716Z,59.74
2023-02-14T12:45:12.900Z,59.72
2023-02-14T12:48:04.112Z,60.03
2023-02-14T12:50:40.795Z,60.50
2023-02-14T12:53:25.439Z,60.92
2023-02-14T12:56:21.173Z,60.48
2023-02-14T12:59:05.112Z,60.40
2023-02-14T13:01:59.524Z,60.64
2023-02-14T13:04:55.505Z,60.85
2023-02-14T13:07:28.272Z,61.47
2023-02-14T13:10:13.258Z,61.23
2023-02-14T13:13:03.786Z,61.75
2023-02-14T13:15:30.695Z,62.46
2023-02-14T13:18:15.621Z,62.80
2023-02-14T13:20:53.527Z,62.61
2023-02-14T13:23:31.651Z,62.88
2023-02-14T13:26:06.438Z,62.54
2023-02-14T13:28:35.850Z,62.34
2023-02-14T13:31:03.196Z,61.49
2023-02-14T13:33:36.388Z,62.67
2023-02-14T13:36:07.816Z,62.74
2023-02-14T13:38:42.904Z,61.73
2023-02-14T13:41:10.497Z,61.83
2023-02-14T13:43:56.272Z,61.95
2023-02-14T13:46:32.285Z,62.37
2023-02-14T13:49:03.244Z,61.88
2023-02-14T13:51:48.210Z,61.86
2023-02-14T13:54:27.038Z,62.71
2023-02-14T13:56:53.874Z,62.70
2023-02-14T13:59:38.679Z,62.21
2023-02-14T14:02:29.843Z,63.14
2023-02-14T14:04:56.777Z,62.32
2023-02-14T14:07:30.760Z,62.75
2023-02-14T14:10:00.193Z,62.55
2023-02-14T14:12:26.747Z,62.84
2023-02-14T14:15:05.730Z,62.63
2023-02-14T14:18:08.591Z,62.98
2023-02-14T14:20:42.197Z,62.48
2023-02-14T14:23:29.799Z,62.32
2023-02-14T14:25:56.598Z,62.74
2023-02-14T14:28:26.027Z,62.42
2023-02-14T14:30:52.886Z,63.19
2023-02-14T14:33:34.062Z,62.79
2023-02-14T14:36:08.294Z,62.61
2023-02-14T14:38:46.866Z,62.74
2023-02-14T14:41:13.872Z,62.02
2023-02-14T14:43:41.266Z,62.08
2023-02-14T14:46:11.424Z,61.76
2023-02-14T14:48:47.136Z,62.21
2023-02-14T14:51:30.663Z,61.61
2023-02-14T14:53:57.302Z,61.34
2023-02-14T14:56:25.622Z,61.12
2023-02-14T14:58:53.445Z,61.97
2023-02-14T15:01:40.011Z,61.51
2023-02-14T15:04:16.827Z,60.89
2023-02-14T15:06:43.888Z,61.41
2023-02-14T15:09:31.602Z,61.42
2023-02-14T15:12:21.636Z,61.52
2023-02-14T15:14:54.632Z,62.16
2023-02-14T15:17:31.643Z,61.59
2023-02-14T15:20:03.908Z,62.44
2023-02-14T15:22:38.014Z,62.42
2023-02-14T15:25:11.865Z,61.56
2023-02-14T15:27:42.433Z,62.84
2023-02-14T15:30:23.682Z,62.51
2023-02-14T15:32:52.528Z,62.43
2023-02-14T15:35:25.419Z,63.13
2023-02-14T15:37:52.726Z,62.56
2023-02-14T15:40:33.843Z,63.38
2023-02-14T15:43:36.256Z,63.16
2023-02-14T15:46:38.071Z,62.98
2023-02-14T15:49:16.096Z,63.38
2023-02-14T15:51:43.315Z,63.67
2023-02-14T15:54:38.492Z,63.88
2023-02-14T15:57:07.772Z,63.92
2023-02-14T15:59:36.395Z,63.52
2023-02-14T16:02:15.118Z,63.48
2023-02-14T16:04:41.990Z,64.05
2023-02-14T16:07:28.801Z,64.42
2023-02-14T16:10:14.231Z,64.44
2023-02-14T16:12:42.274Z,64.35
2023-02-14T16:15:23.922Z,65.22
2023-02-14T16:17:50.892Z,65.20
2023-02-14T16:20:38.904Z,64.75
2023-02-14T16:23:29.129Z,64.28
2023-02-14T16:25:58.813Z,64.60
2023-02-14T16:28:30.259Z,65.20
2023-02-14T16:30:59.195Z,65.86
2023-02-14T16:33:28.967Z,65.41
2023-02-14T16:36:06.204Z,65.80
2023-02-14T16:38:41.360Z,66.02
2023-02-14T16:41:15.180Z,66.47
2023-02-14T16:43:41.730Z,66.24
2023-02-14T16:46:13.781Z,66.62
2023-02-14T16:48:41.683Z,66.84
2023-02-14T16:51:12.898Z,67.37
2023-02-14T16:53:42.170Z,67.25
2023-02-14T16:56:47.956Z,67.80
2023-02-14T16:59:14.820Z,67.60
2023-02-14T17:01:45.618Z,67.51
2023-02-14T17:04:12.536Z,67.43
2023-02-14T17:06:43.363Z,68.03
2023-02-14T17:09:12.407Z,68.57
2023-02-14T17:11:45.297Z,68.62
2023-02-14T17:14:17.374Z,68.95
2023-02-14T17:16:44.289Z,68.91
2023-02-14T17:19:10.978Z,68.89
2023-02-14T17:21:38.395Z,68.94
2023-02-14T17:24:05.319Z,68.68
2023-02-14T17:26:33.778Z,69.16
2023-02-14T17:29:00.431Z,69.18
2023-02-14T17:31:28.578Z,69.36
2023-02-14T17:33:55.571Z,69.79
2023-02-14T17:36:24.085Z,69.61
2023-02-14T17:38:53.174Z,69.23
2023-02-14T17:41:23.005Z,69.10
2023-02-14T17:43:50.652Z,69.20
2023-02-14T17:46:20.647Z,69.63
2023-02-14T17:48:49.145Z,69.43
2023-02-14T17:51:18.040Z,70.13
2023-02-14T17:53:44.671Z,70.11
2023-02-14T17:56:20.134Z,69.55
2023-02-14T17:58:48.667Z,68.66
2023-02-14T18:01:17.893Z,68.71
2023-02-14T18:03:45.291Z,68.65
2023-02-14T18:06:12.781Z,68.81
2023-02-14T18:08:49.326Z,68.42
2023-02-14T18:11:17.316Z,68.80
2023-02-14T18:13:44.493Z,68.35
2023-02-14T18:16:17.844Z,68.51
2023-02-14T18:18:45.320Z,69.45
2023-02-14T18:21:14.656Z,70.53
2023-02-14T18:23:42.176Z,71.78
2023-02-14T18:26:14.061Z,76.05
2023-02-14T18:28:41.611Z,72.38
2023-02-14T18:31:14.178Z,69.26
2023-02-14T18:33:41.310Z,69.03
2023-02-14T18:36:13.039Z,69.47
2023-02-14T18:38:42.066Z,71.21
2023-02-14T18:41:11.300Z,69.54
2023-02-14T18:43:38.514Z,69.27
2023-02-14T18:46:07.424Z,69.26
2023-02-14T18:48:35.878Z,75.52
2023-02-14T18:51:09.785Z,75.99
2023-02-14T18:53:37.791Z,68.33
2023-02-14T18:56:14.957Z,65.33
2023-02-14T18:58:43.687Z,65.51
2023-02-14T19:01:15.821Z,65.68
2023-02-14T19:03:43.154Z,65.04
2023-02-14T19:06:10.967Z,65.40
2023-02-14T19:08:40.005Z,66.57
2023-02-14T19:11:15.694Z,67.38
2023-02-14T19:13:50.955Z,67.34
2023-02-14T19:16:24.176Z,66.98
2023-02-14T19:18:53.371Z,68.03
2023-02-14T19:21:26.003Z,66.25
2023-02-14T19:23:54.874Z,66.65
2023-02-14T19:26:27.140Z,67.33
2023-02-14T19:28:58.314Z,68.63
2023-02-14T19:31:25.812Z,68.76
2023-02-14T19:33:52.815Z,66.33
2023-02-14T19:36:21.867Z,64.48
2023-02-14T19:38:51.202Z,65.17
2023-02-14T19:41:27.135Z,66.61
2023-02-14T19:43:57.829Z,66.79
2023-02-14T19:46:26.231Z,69.04
2023-02-14T19:48:52.989Z,68.63
2023-02-14T19:51:28.845Z,67.72
2023-02-14T19:53:57.066Z,67.94
2023-02-14T19:56:26.418Z,66.14
2023-02-14T19:58:53.608Z,66.46
2023-02-14T20:01:26.199Z,67.84
2023-02-14T20:03:53.913Z,68.58
2023-02-14T20:06:25.205Z,68.04
2023-02-14T20:08:52.164Z,67.71
2023-02-14T20:11:21.972Z,68.84
2023-02-14T20:13:48.619Z,68.52
2023-02-14T20:16:15.224Z,67.56
2023-02-14T20:18:41.811Z,67.95
2023-02-14T20:21:15.314Z,67.72
2023-02-14T20:23:41.939Z,70.81
2023-02-14T20:26:12.387Z,69.37
2023-02-14T20:28:39.165Z,69.58
2023-02-14T20:31:08.334Z,69.90
2023-02-14T20:33:35.073Z,70.58
2023-02-14T20:36:02.118Z,70.98
2023-02-14T20:38:28.675Z,71.21
2023-02-14T20:40:55.276Z,71.68
2023-02-14T20:43:24.437Z,72.19
2023-02-14T20:45:51.046Z,72.72
2023-02-14T20:48:17.621Z,72.99
2023-02-14T20:50:44.160Z,73.30
2023-02-14T20:53:10.775Z,73.99
2023-02-14T20:55:41.747Z,74.09
2023-02-14T20:58:08.359Z,74.52
2023-02-14T21:00:35.414Z,75.05
2023-02-14T21:03:02.107Z,75.41
2023-02-14T21:05:28.822Z,75.64
2023-02-14T21:07:55.376Z,75.81
2023-02-14T21:10:22.392Z,75.76
2023-02-14T21:12:50.053Z,76.54
2023-02-14T21:15:16.765Z,76.81
2023-02-14T21:17:43.315Z,77.15
2023-02-14T21:20:10.796Z,77.18
2023-02-14T21:22:37.983Z,76.99
2023-02-14T21:25:06.031Z,77.86
2023-02-14T21:27:35.032Z,77.79
2023-02-14T21:30:03.235Z,78.44
2023-02-14T21:32:29.990Z,78.85
2023-02-14T21:34:56.614Z,79.51
2023-02-14T21:37:23.508Z,79.96
2023-02-14T21:39:50.254Z,80.20
2023-02-14T21:42:18.474Z,80.99
2023-02-14T21:45:03.621Z,80.99
2023-02-14T21:47:30.418Z,81.85
2023-02-14T21:50:15.617Z,81.67
2023-02-14T21:52:42.376Z,82.34
2023-02-14T21:55:09.053Z,82.94
2023-02-14T21:57:35.639Z,83.08
2023-02-14T22:00:05.704Z,82.83
2023-02-14T22:02:39.664Z,83.20
2023-02-14T22:05:07.808Z,82.74
2023-02-14T22:07:37.662Z,82.73
2023-02-14T22:10:04.750Z,82.79
2023-02-14T22:12:31.519Z,83.52
2023-02-14T22:15:01.267Z,84.12
2023-02-14T22:17:28.166Z,84.59
2023-02-14T22:19:54.789Z,85.27
2023-02-14T22:22:21.586Z,85.43
2023-02-14T22:24:48.546Z,85.78
2023-02-14T22:27:16.148Z,86.04
2023-02-14T22:29:43.416Z,86.12
2023-02-14T22:32:10.223Z,85.89
2023-02-14T22:34:36.902Z,85.45
2023-02-14T22:37:03.533Z,85.22
2023-02-14T22:39:30.116Z,85.71
2023-02-14T22:41:56.986Z,85.49
2023-02-14T22:44:23.628Z,85.51
2023-02-14T22:46:50.216Z,85.46
2023-02-14T22:49:17.412Z,84.78
2023-02-14T22:51:44.394Z,85.50
2023-02-14T22:54:13.679Z,84.66
2023-02-14T22:56:42.836Z,84.90
2023-02-14T22:59:22.432Z,84.89
2023-02-14T23:01:50.954Z,85.08
2023-02-14T23:04:19.336Z,85.56
2023-02-14T23:06:48.989Z,85.57
2023-02-14T23:09:15.626Z,85.49
2023-02-14T23:11:43.827Z,85.72
2023-02-14T23:14:33.834Z,85.85
2023-02-14T23:17:19.659Z,85.45
2023-02-14T23:20:06.045Z,84.87
2023-02-14T23:22:38.150Z,84.33
2023-02-14T23:25:07.713Z,84.37
2023-02-14T23:27:41.259Z,84.19
2023-02-14T23:30:10.911Z,83.60
2023-02-14T23:32:37.636Z,83.31
2023-02-14T23:35:04.800Z,83.55
2023-02-14T23:37:31.368Z,83.49
2023-02-14T23:39:57.920Z,83.05
2023-02-14T23:42:24.836Z,82.63
2023-02-14T23:44:51.545Z,82.74
2023-02-14T23:47:18.348Z,83.07
2023-02-14T23:49:46.154Z,82.80
2023-02-14T23:52:13.677Z,82.75
2023-02-14T23:54:40.483Z,83.04
2023-02-14T23:57:08.524Z,82.54
2023-02-14T23:59:35.258Z,82.72
